createdAt,value
2023-09-17T00:00:06.120Z,96124.47
2023-09-17T00:02:38.784Z,96121.38
2023-09-17T00:05:10.154Z,96127.63
2023-09-17T00:07:38.382Z,96128.06
2023-09-17T00:10:06.916Z,96126.25
2023-09-17T00:12:34.779Z,96127.22
2023-09-17T00:15:04.501Z,96125.38
2023-09-17T00:17:32.372Z,96137.09
2023-09-17T00:20:01.570Z,96130.75
2023-09-17T00:22:29.369Z,96131.56
2023-09-17T00:24:57.214Z,96133.47
2023-09-17T00:27:27.505Z,96129.63
2023-09-17T00:29:55.342Z,96133.94
2023-09-17T00:32:25.500Z,96134.72
2023-09-17T00:34:53.369Z,96134.34
2023-09-17T00:37:23.982Z,96128.56
2023-09-17T00:39:51.990Z,96122.34
2023-09-17T00:42:19.869Z,96122.56
2023-09-17T00:44:48.666Z,96122.13
2023-09-17T00:47:16.734Z,96121.00
2023-09-17T00:49:46.256Z,96113.28
2023-09-17T00:52:18.065Z,96118.34
2023-09-17T00:54:48.379Z,96115.28
2023-09-17T00:57:20.301Z,96112.13
2023-09-17T00:59:48.986Z,96112.91
2023-09-17T01:02:19.882Z,96112.91
2023-09-17T01:04:51.935Z,96117.56
2023-09-17T01:07:20.577Z,96115.63
2023-09-17T01:09:55.430Z,96107.88
2023-09-17T01:12:23.483Z,96102.88
2023-09-17T01:14:51.998Z,96100.94
2023-09-17T01:17:19.845Z,96107.09
2023-09-17T01:19:47.672Z,96103.16
2023-09-17T01:22:25.309Z,96106.94
2023-09-17T01:25:06.530Z,96103.97
2023-09-17T01:27:40.802Z,96093.31
2023-09-17T01:30:16.778Z,96092.91
2023-09-17T01:32:44.845Z,96100.19
2023-09-17T01:35:14.819Z,96105.53
2023-09-17T01:37:48.257Z,96102.28
2023-09-17T01:40:16.348Z,96105.00
2023-09-17T01:42:47.966Z,96101.50
2023-09-17T01:45:15.993Z,96099.19
2023-09-17T01:47:47.663Z,96101.59
2023-09-17T01:50:16.781Z,96097.19
2023-09-17T01:52:46.179Z,96099.72
2023-09-17T01:55:14.204Z,96105.31
2023-09-17T01:57:43.195Z,96111.78
2023-09-17T02:00:17.966Z,96114.66
2023-09-17T02:02:52.430Z,96124.66
2023-09-17T02:05:25.549Z,96118.34
2023-09-17T02:07:56.153Z,96118.34
2023-09-17T02:10:24.301Z,96114.72
2023-09-17T02:12:52.449Z,96120.50
2023-09-17T02:15:21.882Z,96126.75
2023-09-17T02:17:52.525Z,96124.38
2023-09-17T02:20:21.147Z,96122.00
2023-09-17T02:22:49.205Z,96129.69
2023-09-17T02:25:17.040Z,96139.63
2023-09-17T02:27:47.541Z,96142.47
2023-09-17T02:30:15.586Z,96146.88
2023-09-17T02:32:45.243Z,96142.25
2023-09-17T02:35:13.495Z,96143.84
2023-09-17T02:37:41.344Z,96143.84
2023-09-17T02:40:10.709Z,96152.44
2023-09-17T02:42:39.399Z,96142.47
2023-09-17T02:45:10.126Z,96132.81
2023-09-17T02:47:41.252Z,96136.78
2023-09-17T02:50:11.885Z,96134.97
2023-09-17T02:52:40.504Z,96133.81
2023-09-17T02:55:09.619Z,96137.31
2023-09-17T02:57:37.603Z,96129.41
2023-09-17T03:00:09.913Z,96136.34
2023-09-17T03:02:40.211Z,96126.91
2023-09-17T03:05:12.008Z,96142.00
2023-09-17T03:07:40.797Z,96148.38
2023-09-17T03:10:12.409Z,96149.41
2023-09-17T03:12:41.154Z,96149.66
2023-09-17T03:15:10.282Z,96145.31
2023-09-17T03:17:39.033Z,96135.91
2023-09-17T03:20:15.037Z,96140.09
2023-09-17T03:22:44.983Z,96149.88
2023-09-17T03:25:14.161Z,96145.78
2023-09-17T03:27:44.493Z,96143.97
2023-09-17T03:30:13.838Z,96140.47
2023-09-17T03:32:53.244Z,96145.44
2023-09-17T03:35:27.219Z,96145.00
2023-09-17T03:37:56.474Z,96145.31
2023-09-17T03:40:24.447Z,96154.97
2023-09-17T03:42:53.762Z,96146.81
2023-09-17T03:45:22.014Z,96148.84
2023-09-17T03:47:50.187Z,96145.00
2023-09-17T03:50:21.276Z,96144.66
2023-09-17T03:52:53.312Z,96148.63
2023-09-17T03:55:28.659Z,96149.72
2023-09-17T03:57:58.776Z,96145.44
2023-09-17T04:00:30.835Z,96142.72
2023-09-17T04:02:58.965Z,96154.06
2023-09-17T04:05:26.773Z,96152.13
2023-09-17T04:07:55.073Z,96152.00
2023-09-17T04:10:25.344Z,96152.69
2023-09-17T04:12:53.389Z,96147.59
2023-09-17T04:15:21.443Z,96148.38
2023-09-17T04:17:51.876Z,96152.69
2023-09-17T04:20:20.558Z,96156.56
2023-09-17T04:22:50.014Z,96157.69
2023-09-17T04:25:19.862Z,96146.03
2023-09-17T04:27:51.159Z,96147.00
2023-09-17T04:30:22.568Z,96157.00
2023-09-17T04:32:52.672Z,96160.06
2023-09-17T04:35:21.487Z,96154.94
2023-09-17T04:37:50.930Z,96163.88
2023-09-17T04:40:26.998Z,96162.66
2023-09-17T04:43:01.541Z,96158.38
2023-09-17T04:45:34.885Z,96164.03
2023-09-17T04:48:05.744Z,96158.13
2023-09-17T04:50:35.093Z,96162.88
2023-09-17T04:53:03.248Z,96161.31
2023-09-17T04:55:31.837Z,96169.47
2023-09-17T04:58:01.000Z,96165.06
2023-09-17T05:00:28.794Z,96174.66
2023-09-17T05:02:56.969Z,96172.75
2023-09-17T05:05:26.661Z,96182.47
2023-09-17T05:07:54.970Z,96184.53
2023-09-17T05:10:23.117Z,96174.09
2023-09-17T05:12:51.429Z,96179.22
2023-09-17T05:15:22.284Z,96180.56
2023-09-17T05:17:51.471Z,96176.81
2023-09-17T05:20:22.597Z,96188.63
2023-09-17T05:22:53.045Z,96187.63
2023-09-17T05:25:21.794Z,96184.25
2023-09-17T05:27:51.146Z,96186.25
2023-09-17T05:30:19.427Z,96196.59
2023-09-17T05:32:49.376Z,96197.25
2023-09-17T05:35:17.987Z,96190.09
2023-09-17T05:37:46.010Z,96194.63
2023-09-17T05:40:13.839Z,96194.38
2023-09-17T05:42:41.745Z,96206.19
2023-09-17T05:45:10.852Z,96199.69
2023-09-17T05:47:39.521Z,96204.56
2023-09-17T05:50:10.358Z,96212.28
2023-09-17T05:52:38.894Z,96210.53
2023-09-17T05:55:07.897Z,96206.53
2023-09-17T05:57:35.880Z,96213.75
2023-09-17T06:00:08.642Z,96214.78
2023-09-17T06:02:45.881Z,96202.91
2023-09-17T06:05:19.835Z,96212.53
2023-09-17T06:07:47.741Z,96214.06
2023-09-17T06:10:17.326Z,96215.94
2023-09-17T06:12:45.221Z,96217.81
2023-09-17T06:15:13.475Z,96222.84
2023-09-17T06:17:44.935Z,96227.88
2023-09-17T06:20:13.157Z,96221.53
2023-09-17T06:22:42.373Z,96214.75
2023-09-17T06:25:11.682Z,96211.47
2023-09-17T06:27:39.521Z,96207.06
2023-09-17T06:30:09.061Z,96209.28
2023-09-17T06:32:37.720Z,96217.28
2023-09-17T06:35:06.439Z,96209.59
2023-09-17T06:37:34.269Z,96220.59
2023-09-17T06:40:03.924Z,96217.94
2023-09-17T06:42:32.547Z,96216.44
2023-09-17T06:45:00.307Z,96217.66
2023-09-17T06:47:30.348Z,96224.72
2023-09-17T06:49:58.278Z,96230.19
2023-09-17T06:52:28.978Z,96232.56
2023-09-17T06:54:56.746Z,96237.75
2023-09-17T06:57:25.828Z,96236.66
2023-09-17T06:59:54.324Z,96235.69
2023-09-17T07:02:22.122Z,96235.47
2023-09-17T07:04:50.058Z,96246.56
2023-09-17T07:07:17.917Z,96250.94
2023-09-17T07:09:45.703Z,96248.06
2023-09-17T07:12:13.627Z,96240.97
2023-09-17T07:14:45.287Z,96243.97
2023-09-17T07:17:15.513Z,96247.22
2023-09-17T07:19:43.522Z,96243.00
2023-09-17T07:22:15.915Z,96244.31
2023-09-17T07:24:43.848Z,96246.75
2023-09-17T07:27:14.011Z,96232.03
2023-09-17T07:29:46.812Z,96248.22
2023-09-17T07:32:14.723Z,96250.72
2023-09-17T07:34:42.900Z,96248.97
2023-09-17T07:37:10.737Z,96256.34
2023-09-17T07:39:39.343Z,96264.94
2023-09-17T07:42:07.703Z,96253.94
2023-09-17T07:44:36.222Z,96254.56
2023-09-17T07:47:07.504Z,96254.38
2023-09-17T07:49:37.513Z,96259.34
2023-09-17T07:52:06.238Z,96272.59
2023-09-17T07:54:39.258Z,96269.28
2023-09-17T07:57:08.395Z,96271.09
2023-09-17T07:59:36.233Z,96278.38
2023-09-17T08:02:05.855Z,96277.03
2023-09-17T08:04:35.098Z,96281.16
2023-09-17T08:07:03.498Z,96277.38
2023-09-17T08:09:31.506Z,96288.06
2023-09-17T08:11:59.491Z,96283.03
2023-09-17T08:14:27.462Z,96280.75
2023-09-17T08:16:58.833Z,96287.91
2023-09-17T08:19:28.160Z,96300.53
2023-09-17T08:21:57.002Z,96296.22
2023-09-17T08:24:26.261Z,96302.16
2023-09-17T08:26:55.913Z,96303.00
2023-09-17T08:29:23.931Z,96298.66
2023-09-17T08:31:52.238Z,96301.81
2023-09-17T08:34:22.479Z,96298.72
2023-09-17T08:36:54.042Z,96304.25
2023-09-17T08:39:21.881Z,96314.88
2023-09-17T08:41:50.216Z,96318.78
2023-09-17T08:44:18.956Z,96318.78
2023-09-17T08:46:48.518Z,96321.19
2023-09-17T08:49:16.446Z,96318.81
2023-09-17T08:51:46.625Z,96328.28
2023-09-17T08:54:24.049Z,96331.44
2023-09-17T08:56:54.047Z,96329.47
2023-09-17T08:59:26.732Z,96331.47
2023-09-17T09:01:55.883Z,96324.78
2023-09-17T09:04:25.464Z,96327.56
2023-09-17T09:06:55.076Z,96325.63
2023-09-17T09:09:25.355Z,96326.03
2023-09-17T09:11:53.389Z,96331.91
2023-09-17T09:14:22.103Z,96331.91
2023-09-17T09:16:50.820Z,96336.22
2023-09-17T09:19:18.639Z,96326.75
2023-09-17T09:21:52.594Z,96339.41
2023-09-17T09:24:20.384Z,96336.56
2023-09-17T09:26:57.723Z,96343.56
2023-09-17T09:29:55.486Z,96343.91
2023-09-17T09:32:23.523Z,96341.56
2023-09-17T09:34:53.659Z,96343.56
2023-09-17T09:37:24.430Z,96345.16
2023-09-17T09:39:52.505Z,96349.56
2023-09-17T09:42:26.274Z,96340.88
2023-09-17T09:44:55.155Z,96339.28
2023-09-17T09:47:24.724Z,96332.91
2023-09-17T09:49:52.976Z,96336.88
2023-09-17T09:52:25.183Z,96332.13
2023-09-17T09:54:52.966Z,96341.63
2023-09-17T09:57:22.393Z,96326.66
2023-09-17T09:59:51.676Z,96332.56
2023-09-17T10:02:21.820Z,96333.38
2023-09-17T10:04:50.609Z,96331.41
2023-09-17T10:07:19.882Z,96324.31
2023-09-17T10:09:48.614Z,96324.38
2023-09-17T10:12:17.474Z,96312.50
2023-09-17T10:14:46.679Z,96317.91
2023-09-17T10:17:15.261Z,96320.88
2023-09-17T10:19:44.759Z,96320.78
2023-09-17T10:22:14.249Z,96320.22
2023-09-17T10:24:43.670Z,96318.03
2023-09-17T10:27:14.675Z,96311.22
2023-09-17T10:29:44.681Z,96313.38
2023-09-17T10:32:13.915Z,96304.84
2023-09-17T10:34:43.102Z,96295.16
2023-09-17T10:37:12.633Z,96298.81
2023-09-17T10:39:41.340Z,96295.09
2023-09-17T10:42:11.332Z,96295.66
2023-09-17T10:44:41.100Z,96299.31
2023-09-17T10:47:12.172Z,96294.72
2023-09-17T10:49:42.831Z,96272.31
2023-09-17T10:52:11.805Z,96270.75
2023-09-17T10:54:39.992Z,96262.84
2023-09-17T10:57:14.581Z,96273.81
2023-09-17T10:59:42.906Z,96271.44
2023-09-17T11:02:12.651Z,96268.31
2023-09-17T11:04:43.536Z,96259.28
2023-09-17T11:07:12.490Z,96263.81
2023-09-17T11:09:40.327Z,96263.53
2023-09-17T11:12:09.895Z,96265.72
2023-09-17T11:14:37.714Z,96265.13
2023-09-17T11:17:06.309Z,96264.63
2023-09-17T11:19:34.353Z,96258.47
2023-09-17T11:22:14.710Z,96255.91
2023-09-17T11:24:46.584Z,96254.44
2023-09-17T11:27:14.339Z,96258.25
2023-09-17T11:29:43.288Z,96260.19
2023-09-17T11:32:12.774Z,96256.03
2023-09-17T11:34:43.314Z,96261.88
2023-09-17T11:37:15.337Z,96260.31
2023-09-17T11:39:51.794Z,96267.31
2023-09-17T11:42:19.932Z,96263.53
2023-09-17T11:44:48.046Z,96266.06
2023-09-17T11:47:18.286Z,96269.09
2023-09-17T11:49:48.071Z,96266.41
2023-09-17T11:52:17.277Z,96260.84
2023-09-17T11:54:52.188Z,96256.53
2023-09-17T11:57:24.696Z,96257.41
2023-09-17T11:59:53.316Z,96249.66
2023-09-17T12:02:22.300Z,96251.72
2023-09-17T12:04:53.942Z,96254.09
2023-09-17T12:07:23.921Z,96241.44
2023-09-17T12:10:03.097Z,96228.34
2023-09-17T12:12:34.021Z,96231.13
2023-09-17T12:15:02.782Z,96224.81
2023-09-17T12:17:41.576Z,96228.69
2023-09-17T12:20:53.096Z,96221.91
2023-09-17T12:24:06.404Z,96218.72
2023-09-17T12:26:59.660Z,96208.84
2023-09-17T12:29:50.509Z,96207.50
2023-09-17T12:32:21.849Z,96211.28
2023-09-17T12:34:51.555Z,96201.66
2023-09-17T12:37:19.481Z,96198.19
2023-09-17T12:39:50.352Z,96193.31
2023-09-17T12:42:18.590Z,96188.00
2023-09-17T12:44:46.449Z,96173.06
2023-09-17T12:47:14.698Z,96183.31
2023-09-17T12:49:44.012Z,96177.09
2023-09-17T12:52:13.607Z,96173.75
2023-09-17T12:54:41.856Z,96165.69
2023-09-17T12:57:11.176Z,96158.78
2023-09-17T12:59:39.767Z,96163.31
2023-09-17T13:02:08.911Z,96161.00
2023-09-17T13:04:38.283Z,96158.47
2023-09-17T13:07:07.896Z,96155.25
2023-09-17T13:09:37.081Z,96149.56
2023-09-17T13:12:05.863Z,96155.38
2023-09-17T13:14:37.823Z,96142.00
2023-09-17T13:17:06.521Z,96139.06
2023-09-17T13:19:34.838Z,96142.31
2023-09-17T13:22:02.820Z,96142.59
2023-09-17T13:24:32.066Z,96138.38
2023-09-17T13:27:01.401Z,96137.34
2023-09-17T13:29:37.694Z,96130.00
2023-09-17T13:32:09.759Z,96133.66
2023-09-17T13:34:39.623Z,96132.47
2023-09-17T13:37:09.398Z,96130.78
2023-09-17T13:39:40.186Z,96124.75
2023-09-17T13:42:08.515Z,96116.94
2023-09-17T13:44:38.354Z,96118.63
2023-09-17T13:47:10.494Z,96115.94
2023-09-17T13:49:38.746Z,96113.03
2023-09-17T13:52:07.725Z,96114.44
2023-09-17T13:54:35.880Z,96112.44
2023-09-17T13:57:04.432Z,96117.66
2023-09-17T13:59:32.186Z,96115.25
2023-09-17T14:02:01.465Z,96109.91
2023-09-17T14:04:29.324Z,96101.97
2023-09-17T14:06:58.020Z,96104.78
2023-09-17T14:09:25.845Z,96105.84
2023-09-17T14:11:53.665Z,96105.19
2023-09-17T14:14:21.412Z,96100.75
2023-09-17T14:16:49.283Z,96109.09
2023-09-17T14:19:20.076Z,96114.31
2023-09-17T14:21:48.874Z,96115.06
2023-09-17T14:24:16.977Z,96111.69
2023-09-17T14:26:45.222Z,96109.38
2023-09-17T14:29:13.401Z,96107.00
2023-09-17T14:31:44.054Z,96102.50
2023-09-17T14:34:12.359Z,96092.13
2023-09-17T14:36:41.762Z,96099.97
2023-09-17T14:39:12.334Z,96096.63
2023-09-17T14:41:41.553Z,96096.88
2023-09-17T14:44:09.475Z,96094.38
2023-09-17T14:46:39.388Z,96094.66
2023-09-17T14:49:08.058Z,96087.78
2023-09-17T14:51:35.878Z,96083.97
2023-09-17T14:54:05.365Z,96078.94
2023-09-17T14:56:33.126Z,96083.88
2023-09-17T14:59:00.950Z,96080.13
2023-09-17T15:01:56.835Z,96083.44
2023-09-17T15:04:16.843Z,96079.19
2023-09-17T15:06:44.822Z,96082.09
2023-09-17T15:09:14.069Z,96083.84
2023-09-17T15:11:41.850Z,96080.97
2023-09-17T15:14:09.817Z,96084.50
2023-09-17T15:16:38.547Z,96074.47
2023-09-17T15:19:07.187Z,96070.78
2023-09-17T15:21:35.112Z,96070.56
2023-09-17T15:24:04.940Z,96066.38
2023-09-17T15:26:34.256Z,96056.97
2023-09-17T15:29:02.122Z,96055.56
2023-09-17T15:31:34.709Z,96048.50
2023-09-17T15:34:02.677Z,96053.75
2023-09-17T15:36:31.861Z,96058.25
2023-09-17T15:38:59.631Z,96051.25
2023-09-17T15:41:29.242Z,96047.47
2023-09-17T15:43:58.526Z,96051.59
2023-09-17T15:46:26.521Z,96049.38
2023-09-17T15:48:54.657Z,96036.00
2023-09-17T15:51:22.587Z,96038.06
2023-09-17T15:53:50.336Z,96038.97
2023-09-17T15:56:18.148Z,96034.34
2023-09-17T15:58:46.056Z,96027.75
2023-09-17T16:01:15.404Z,96027.09
2023-09-17T16:03:44.624Z,96021.31
2023-09-17T16:06:12.810Z,96023.47
2023-09-17T16:08:40.601Z,96026.41
2023-09-17T16:11:08.349Z,96022.59
2023-09-17T16:13:36.381Z,96020.78
2023-09-17T16:16:04.960Z,96022.50
2023-09-17T16:18:34.963Z,96019.88
2023-09-17T16:21:02.820Z,96008.59
2023-09-17T16:23:30.978Z,96003.22
2023-09-17T16:25:58.945Z,95997.84
2023-09-17T16:28:27.151Z,95999.63
2023-09-17T16:30:54.958Z,96004.56
2023-09-17T16:33:22.771Z,95999.19
2023-09-17T16:35:52.223Z,96003.69
2023-09-17T16:38:21.013Z,96003.41
2023-09-17T16:40:49.168Z,96007.47
2023-09-17T16:43:17.366Z,96003.97
2023-09-17T16:45:45.545Z,96006.00
2023-09-17T16:48:13.358Z,96005.31
2023-09-17T16:50:41.156Z,95988.81
2023-09-17T16:53:10.361Z,95997.56
2023-09-17T16:55:39.242Z,95994.50
2023-09-17T16:58:07.212Z,95987.47
2023-09-17T17:00:34.969Z,95995.06
2023-09-17T17:03:02.922Z,95995.94
2023-09-17T17:05:30.868Z,95987.31
2023-09-17T17:07:59.424Z,95983.47
2023-09-17T17:10:28.650Z,95985.91
2023-09-17T17:12:56.832Z,95979.66
2023-09-17T17:15:24.722Z,95978.53
2023-09-17T17:17:52.589Z,95980.94
2023-09-17T17:20:20.616Z,95976.66
2023-09-17T17:22:49.820Z,95970.78
2023-09-17T17:25:18.365Z,95980.28
2023-09-17T17:27:49.540Z,95977.91
2023-09-17T17:30:17.432Z,95971.63
2023-09-17T17:32:46.085Z,95973.19
2023-09-17T17:35:15.001Z,95968.06
2023-09-17T17:37:44.827Z,95972.38
2023-09-17T17:40:12.627Z,95979.09
2023-09-17T17:42:40.381Z,95977.09
2023-09-17T17:45:10.628Z,95975.88
2023-09-17T17:47:38.397Z,95975.84
2023-09-17T17:50:07.509Z,95973.13
2023-09-17T17:52:35.391Z,95966.03
2023-09-17T17:55:03.874Z,95965.63
2023-09-17T17:57:32.190Z,95973.88
2023-09-17T18:00:01.072Z,95972.66
2023-09-17T18:02:30.312Z,95969.88
2023-09-17T18:04:58.200Z,95978.47
2023-09-17T18:07:26.731Z,95972.19
2023-09-17T18:09:54.497Z,95978.44
2023-09-17T18:12:22.290Z,95975.63
2023-09-17T18:14:50.964Z,95977.53
2023-09-17T18:17:18.780Z,95972.78
2023-09-17T18:19:49.941Z,95981.78
2023-09-17T18:22:18.552Z,95975.84
2023-09-17T18:24:46.402Z,95976.22
2023-09-17T18:27:15.863Z,95968.31
2023-09-17T18:29:43.899Z,95963.19
2023-09-17T18:32:11.766Z,95969.41
2023-09-17T18:34:39.594Z,95977.59
2023-09-17T18:37:08.697Z,95964.63
2023-09-17T18:39:36.521Z,95956.72
2023-09-17T18:42:04.457Z,95967.31
2023-09-17T18:44:32.332Z,95964.16
2023-09-17T18:47:00.248Z,95966.09
2023-09-17T18:49:28.083Z,95971.56
2023-09-17T18:51:55.877Z,95966.81
2023-09-17T18:54:25.822Z,95969.13
2023-09-17T18:56:53.588Z,95964.44
2023-09-17T18:59:21.590Z,95970.22
2023-09-17T19:01:49.525Z,95968.63
2023-09-17T19:04:18.759Z,95963.50
2023-09-17T19:06:46.680Z,95968.19
2023-09-17T19:09:14.504Z,95965.03
2023-09-17T19:11:43.711Z,95964.97
2023-09-17T19:14:11.527Z,95961.06
2023-09-17T19:16:39.429Z,95960.28
2023-09-17T19:19:07.206Z,95966.50
2023-09-17T19:21:36.473Z,95956.72
2023-09-17T19:24:04.421Z,95953.13
2023-09-17T19:26:32.244Z,95953.13
2023-09-17T19:29:04.204Z,95950.00
2023-09-17T19:31:32.012Z,95957.44
2023-09-17T19:34:01.459Z,95958.63
2023-09-17T19:36:29.262Z,95958.25
2023-09-17T19:38:57.262Z,95951.19
2023-09-17T19:41:25.280Z,95948.41
2023-09-17T19:43:53.285Z,95942.91
2023-09-17T19:46:26.144Z,95943.69
2023-09-17T19:48:54.145Z,95939.78
2023-09-17T19:51:22.086Z,95935.09
2023-09-17T19:53:50.406Z,95931.59
2023-09-17T19:56:20.196Z,95925.34
2023-09-17T19:58:48.052Z,95928.06
2023-09-17T20:01:15.870Z,95924.56
2023-09-17T20:03:45.895Z,95930.41
2023-09-17T20:06:13.817Z,95928.84
2023-09-17T20:08:41.645Z,95928.84
2023-09-17T20:11:09.504Z,95928.44
2023-09-17T20:13:37.836Z,95935.81
2023-09-17T20:16:05.893Z,95936.53
2023-09-17T20:18:33.789Z,95941.13
2023-09-17T20:21:02.952Z,95936.72
2023-09-17T20:23:36.992Z,95926.09
2023-09-17T20:26:09.281Z,95928.31
2023-09-17T20:28:37.292Z,95929.00
2023-09-17T20:31:05.261Z,95938.28
2023-09-17T20:33:33.186Z,95931.19
2023-09-17T20:36:02.399Z,95932.63
2023-09-17T20:38:30.235Z,95934.13
2023-09-17T20:40:59.440Z,95937.22
2023-09-17T20:43:27.357Z,95942.66
2023-09-17T20:45:55.187Z,95942.97
2023-09-17T20:48:23.664Z,95939.44
2023-09-17T20:50:51.466Z,95942.13
2023-09-17T20:53:20.625Z,95940.91
2023-09-17T20:55:48.489Z,95933.44
2023-09-17T20:58:16.277Z,95927.13
2023-09-17T21:00:44.042Z,95931.38
2023-09-17T21:03:11.891Z,95924.28
2023-09-17T21:05:46.134Z,95919.94
2023-09-17T21:08:14.081Z,95909.34
2023-09-17T21:10:44.277Z,95913.25
2023-09-17T21:13:12.277Z,95911.19
2023-09-17T21:15:40.306Z,95912.31
2023-09-17T21:18:08.795Z,95909.88
2023-09-17T21:20:36.637Z,95910.56
2023-09-17T21:23:05.124Z,95911.66
2023-09-17T21:25:33.053Z,95903.03
2023-09-17T21:28:02.353Z,95910.03
2023-09-17T21:30:31.777Z,95901.34
2023-09-17T21:33:00.099Z,95904.44
2023-09-17T21:35:27.982Z,95898.56
2023-09-17T21:37:55.913Z,95900.50
2023-09-17T21:40:23.712Z,95886.09
2023-09-17T21:42:51.569Z,95882.94
2023-09-17T21:45:20.684Z,95889.56
2023-09-17T21:47:48.704Z,95880.59
2023-09-17T21:50:16.876Z,95882.47
2023-09-17T21:52:44.853Z,95876.94
2023-09-17T21:55:12.904Z,95885.09
2023-09-17T21:57:42.076Z,95885.09
2023-09-17T22:00:14.281Z,95873.75
2023-09-17T22:02:44.835Z,95869.91
2023-09-17T22:05:12.809Z,95869.53
2023-09-17T22:07:40.599Z,95871.16
2023-09-17T22:10:08.683Z,95868.03
2023-09-17T22:12:37.721Z,95873.50
2023-09-17T22:15:06.480Z,95871.03
2023-09-17T22:17:34.403Z,95868.28
2023-09-17T22:20:13.433Z,95861.19
2023-09-17T22:22:41.308Z,95854.81
2023-09-17T22:25:11.090Z,95854.34
2023-09-17T22:27:39.172Z,95855.00
2023-09-17T22:30:08.057Z,95847.91
2023-09-17T22:32:35.978Z,95843.97
2023-09-17T22:35:06.065Z,95838.13
2023-09-17T22:37:35.803Z,95838.88
2023-09-17T22:40:04.464Z,95839.22
2023-09-17T22:42:32.306Z,95840.75
2023-09-17T22:45:00.205Z,95845.78
2023-09-17T22:47:28.192Z,95841.78
2023-09-17T22:49:56.181Z,95842.16
2023-09-17T22:52:25.330Z,95838.59
2023-09-17T22:54:53.137Z,95834.28
2023-09-17T22:57:20.970Z,95837.78
2023-09-17T22:59:48.898Z,95841.31
2023-09-17T23:02:16.754Z,95835.47
2023-09-17T23:04:44.647Z,95837.41
2023-09-17T23:07:12.453Z,95842.41
2023-09-17T23:09:41.942Z,95841.94
2023-09-17T23:12:10.302Z,95830.06
2023-09-17T23:14:39.168Z,95823.34
2023-09-17T23:17:06.966Z,95837.00
2023-09-17T23:19:34.772Z,95830.75
2023-09-17T23:22:06.578Z,95828.03
2023-09-17T23:24:34.388Z,95821.00
2023-09-17T23:27:03.792Z,95812.88
2023-09-17T23:29:31.677Z,95807.41
2023-09-17T23:31:59.645Z,95812.97
2023-09-17T23:34:27.584Z,95807.50
2023-09-17T23:36:55.387Z,95809.81
2023-09-17T23:39:23.202Z,95809.38
2023-09-17T23:41:51.119Z,95802.31
2023-09-17T23:44:20.318Z,95800.38
2023-09-17T23:46:48.102Z,95794.13
2023-09-17T23:49:15.875Z,95796.84
2023-09-17T23:51:43.655Z,95797.16
2023-09-17T23:54:11.525Z,95797.09
2023-09-17T23:56:39.321Z,95790.78
2023-09-17T23:59:07.105Z,95787.28
